Time;durP1;ratioP1;P1;durP2;ratioP2;P2;SDS_P1;SDS_P2;PMS_P1;PMS_P2;Temp;Humidity;BMP_temperature;BMP_pressure;BME280_temperature;BME280_humidity;BME280_pressure;Samples;Min_cycle;Max_cycle;Signal;HPM_P1;HPM_P2
2023/01/08 00:02:50;;;;;;;3.25;1.90;;;10.90;99.90;;;;;;10500838;28;20017;-65
2023/01/08 00:07:51;;;;;;;3.10;2.00;;;10.90;99.90;;;;;;10516328;28;20213;-66
2023/01/08 00:12:51;;;;;;;3.78;1.75;;;11.00;99.90;;;;;;10493098;28;20034;-65
2023/01/08 00:17:52;;;;;;;3.00;1.90;;;10.90;99.90;;;;;;10512929;28;20338;-65
2023/01/08 00:22:52;;;;;;;3.35;1.85;;;10.90;99.90;;;;;;10513110;28;20020;-65
2023/01/08 00:27:53;;;;;;;3.05;1.83;;;10.90;99.90;;;;;;10522184;28;20451;-65
2023/01/08 00:32:53;;;;;;;3.13;1.92;;;10.90;99.90;;;;;;10512995;28;20044;-65
2023/01/08 00:37:54;;;;;;;3.88;1.95;;;10.90;99.90;;;;;;10523882;28;20089;-65
2023/01/08 00:42:55;;;;;;;4.28;2.13;;;10.90;99.90;;;;;;10523927;28;20507;-68
2023/01/08 00:47:55;;;;;;;3.20;1.95;;;10.90;99.90;;;;;;10522488;28;20052;-66
2023/01/08 00:52:56;;;;;;;3.50;1.90;;;10.90;99.90;;;;;;10518653;28;20081;-68
2023/01/08 00:57:57;;;;;;;2.60;1.90;;;10.90;99.90;;;;;;10523679;28;20122;-64
2023/01/08 01:02:57;;;;;;;2.45;1.73;;;10.90;99.90;;;;;;10521741;28;20526;-71
2023/01/08 01:07:58;;;;;;;2.50;1.55;;;10.90;99.90;;;;;;10514068;28;20100;-64
2023/01/08 01:12:59;;;;;;;3.75;1.80;;;10.90;99.90;;;;;;10523792;28;20028;-72
2023/01/08 01:17:59;;;;;;;2.90;1.58;;;10.90;99.90;;;;;;10528828;28;20385;-69
2023/01/08 01:23:00;;;;;;;2.42;1.60;;;10.90;99.90;;;;;;10519870;28;20035;-72
2023/01/08 01:28:00;;;;;;;4.25;1.60;;;10.90;99.90;;;;;;10515420;28;20352;-67
2023/01/08 01:33:01;;;;;;;2.33;1.70;;;10.90;99.90;;;;;;10521244;28;20024;-72
2023/01/08 01:38:01;;;;;;;2.67;1.40;;;10.90;99.90;;;;;;10520318;28;20057;-71
2023/01/08 01:43:02;;;;;;;3.47;1.50;;;10.90;99.90;;;;;;10522032;28;20260;-72
2023/01/08 01:48:08;;;;;;;1.92;1.33;;;10.90;99.90;;;;;;10528778;28;20046;-72
2023/01/08 01:53:18;;;;;;;3.35;1.30;;;10.90;99.90;;;;;;10504744;28;20012;-72
2023/01/08 01:58:22;;;;;;;2.30;1.30;;;10.90;99.90;;;;;;10506187;28;20043;-68
2023/01/08 02:03:26;;;;;;;1.95;1.15;;;10.80;99.90;;;;;;10510062;28;20004;-64
2023/01/08 02:08:53;;;;;;;3.50;1.42;;;10.80;99.90;;;;;;10510832;28;20024;-65
2023/01/08 02:14:18;;;;;;;2.65;1.10;;;10.80;99.90;;;;;;10519345;28;20004;-64
2023/01/08 02:19:31;;;;;;;2.75;1.30;;;10.80;99.90;;;;;;10493277;28;20052;-64
2023/01/08 02:24:53;;;;;;;1.95;1.10;;;10.80;99.90;;;;;;10524107;28;20031;-65
2023/01/08 02:29:55;;;;;;;2.42;1.50;;;10.80;99.90;;;;;;10512538;28;20027;-65
2023/01/08 02:34:56;;;;;;;1.80;1.10;;;10.80;99.90;;;;;;10510949;28;20019;-66
2023/01/08 02:40:22;;;;;;;2.28;0.98;;;10.90;99.90;;;;;;10511255;28;20376;-65
2023/01/08 02:45:45;;;;;;;1.80;1.05;;;10.80;99.90;;;;;;10506234;28;20017;-64
2023/01/08 02:50:55;;;;;;;3.55;0.98;;;10.80;99.90;;;;;;10522970;28;20027;-66
2023/01/08 02:56:05;;;;;;;2.10;1.20;;;10.80;99.90;;;;;;10512418;28;20019;-72
2023/01/08 03:01:10;;;;;;;3.63;1.10;;;10.80;99.90;;;;;;10481514;28;20051;-65
2023/01/08 03:06:14;;;;;;;3.28;1.08;;;10.80;99.90;;;;;;10527000;28;20089;-72
2023/01/08 03:11:20;;;;;;;2.15;1.00;;;10.80;99.90;;;;;;10520634;28;20031;-70
2023/01/08 03:16:34;;;;;;;2.45;1.20;;;10.80;99.90;;;;;;10527547;28;20020;-65
2023/01/08 03:21:36;;;;;;;1.75;0.85;;;10.70;99.90;;;;;;10501369;28;20364;-64
2023/01/08 03:26:40;;;;;;;3.85;1.20;;;10.70;99.90;;;;;;10503356;28;20030;-65
2023/01/08 03:31:42;;;;;;;1.75;0.80;;;10.70;99.90;;;;;;10514336;28;20027;-65
2023/01/08 03:36:47;;;;;;;4.60;1.15;;;10.70;99.90;;;;;;10519313;28;20145;-65
2023/01/08 03:41:48;;;;;;;3.50;0.90;;;10.70;99.90;;;;;;10497485;28;20395;-71
2023/01/08 03:46:53;;;;;;;3.20;1.20;;;10.70;99.90;;;;;;10489172;28;20392;-65
2023/01/08 03:51:53;;;;;;;2.20;1.05;;;10.70;99.90;;;;;;10509014;28;20481;-71
2023/01/08 03:56:54;;;;;;;2.63;1.02;;;10.70;99.90;;;;;;10514740;28;20027;-65
2023/01/08 04:01:55;;;;;;;1.27;1.15;;;10.70;99.90;;;;;;10522416;28;20425;-68
2023/01/08 04:06:55;;;;;;;1.73;1.02;;;10.70;99.90;;;;;;10516939;28;20028;-66
2023/01/08 04:11:56;;;;;;;1.92;1.05;;;10.70;99.90;;;;;;10524744;28;20073;-65
2023/01/08 04:16:57;;;;;;;3.25;1.30;;;10.70;99.90;;;;;;10512036;28;20112;-64
2023/01/08 04:21:57;;;;;;;3.50;1.40;;;10.70;99.90;;;;;;10504449;28;20048;-64
2023/01/08 04:26:58;;;;;;;2.38;1.10;;;10.70;99.90;;;;;;10523127;28;20032;-65
2023/01/08 04:31:59;;;;;;;2.97;1.00;;;10.70;99.90;;;;;;10514140;28;20043;-64
2023/01/08 04:37:00;;;;;;;1.60;0.98;;;10.70;99.90;;;;;;10524284;28;20116;-64
2023/01/08 04:42:01;;;;;;;2.60;1.42;;;10.70;99.90;;;;;;10509934;28;20032;-64
2023/01/08 04:47:02;;;;;;;2.13;1.00;;;10.70;99.90;;;;;;10504079;28;20050;-71
2023/01/08 04:52:02;;;;;;;2.65;1.20;;;10.70;99.90;;;;;;10494392;28;20391;-71
2023/01/08 04:57:03;;;;;;;1.98;1.20;;;10.70;99.90;;;;;;10509340;28;20016;-65
2023/01/08 05:02:04;;;;;;;2.25;1.17;;;10.70;99.90;;;;;;10524557;28;20039;-64
2023/01/08 05:07:04;;;;;;;1.30;1.00;;;10.80;99.90;;;;;;10524092;28;20018;-63
2023/01/08 05:12:05;;;;;;;2.17;1.17;;;10.70;99.90;;;;;;10513239;28;20017;-68
2023/01/08 05:17:05;;;;;;;1.80;1.23;;;10.70;99.90;;;;;;10513171;28;20028;-69
2023/01/08 05:22:06;;;;;;;2.05;1.35;;;10.70;99.90;;;;;;10504632;28;20066;-66
2023/01/08 05:27:07;;;;;;;1.45;1.10;;;10.70;99.90;;;;;;10505134;28;20578;-64
2023/01/08 05:32:15;;;;;;;1.65;1.30;;;10.70;99.90;;;;;;10521341;28;20046;-63
2023/01/08 05:37:15;;;;;;;2.03;1.38;;;10.70;99.90;;;;;;10503526;28;20103;-63
2023/01/08 05:42:16;;;;;;;2.45;1.20;;;10.70;99.90;;;;;;10511625;28;20081;-64
2023/01/08 05:47:17;;;;;;;1.30;1.13;;;10.60;99.90;;;;;;10509884;28;20017;-65
2023/01/08 05:52:17;;;;;;;2.33;1.20;;;10.60;99.90;;;;;;10503698;28;20497;-70
2023/01/08 05:57:18;;;;;;;3.45;1.17;;;10.60;99.90;;;;;;10509249;28;20016;-67
2023/01/08 06:02:18;;;;;;;1.70;1.00;;;10.60;99.90;;;;;;10510352;28;20028;-63
2023/01/08 06:07:19;;;;;;;2.67;1.20;;;11.50;99.90;;;;;;10518825;28;20027;-65
2023/01/08 06:12:19;;;;;;;1.98;1.33;;;10.60;99.90;;;;;;10517849;28;20284;-73
2023/01/08 06:17:20;;;;;;;2.70;1.10;;;10.60;99.90;;;;;;10511588;28;20551;-70
2023/01/08 06:22:21;;;;;;;3.42;1.10;;;10.60;99.90;;;;;;10517371;28;20051;-64
2023/01/08 06:27:21;;;;;;;3.20;1.35;;;10.60;99.90;;;;;;10518875;28;20032;-63
2023/01/08 06:32:22;;;;;;;1.35;0.90;;;10.60;99.90;;;;;;10519299;28;20051;-64
2023/01/08 06:37:23;;;;;;;2.22;1.48;;;10.60;99.90;;;;;;10514363;28;20077;-72
2023/01/08 06:42:23;;;;;;;2.50;1.05;;;10.60;99.90;;;;;;10521353;28;20032;-64
2023/01/08 06:47:24;;;;;;;1.95;1.10;;;10.60;99.90;;;;;;10517829;28;20062;-67
2023/01/08 06:52:24;;;;;;;3.47;1.52;;;10.60;99.90;;;;;;10517180;28;20016;-63
2023/01/08 06:57:26;;;;;;;1.95;1.10;;;10.60;99.90;;;;;;10523750;28;20059;-63
2023/01/08 07:02:27;;;;;;;2.58;1.27;;;10.60;99.90;;;;;;10518626;28;20025;-64
2023/01/08 07:07:27;;;;;;;2.70;1.38;;;10.60;99.90;;;;;;10526869;28;20282;-63
2023/01/08 07:12:28;;;;;;;1.83;1.02;;;10.60;99.90;;;;;;10514495;28;20048;-64
2023/01/08 07:17:32;;;;;;;1.25;0.85;;;10.50;99.90;;;;;;10516790;28;20401;-64
2023/01/08 07:22:32;;;;;;;1.25;1.00;;;10.50;99.90;;;;;;10513643;28;20025;-63
2023/01/08 07:27:33;;;;;;;1.10;0.82;;;10.50;99.90;;;;;;10519044;28;20020;-63
2023/01/08 07:32:34;;;;;;;1.08;0.70;;;10.50;99.90;;;;;;10522203;28;20133;-63
2023/01/08 07:37:41;;;;;;;1.30;0.80;;;10.50;99.90;;;;;;10522838;28;20027;-63
2023/01/08 07:42:42;;;;;;;2.25;0.90;;;10.50;99.90;;;;;;10519288;28;20279;-62
2023/01/08 07:47:43;;;;;;;2.85;1.17;;;10.50;99.90;;;;;;10520834;28;20030;-64
2023/01/08 07:52:43;;;;;;;1.83;0.80;;;10.50;99.90;;;;;;10517810;28;20541;-64
2023/01/08 07:57:44;;;;;;;1.55;0.90;;;10.40;99.90;;;;;;10519444;28;20047;-64
2023/01/08 08:02:45;;;;;;;1.85;0.98;;;10.40;99.90;;;;;;10519342;28;20491;-63
2023/01/08 08:07:46;;;;;;;2.58;0.98;;;10.40;99.90;;;;;;10516605;28;20098;-65
2023/01/08 08:12:46;;;;;;;1.95;1.08;;;10.40;99.90;;;;;;10518246;28;20101;-64
2023/01/08 08:17:47;;;;;;;1.77;0.93;;;10.40;99.90;;;;;;10513185;28;20020;-64
2023/01/08 08:22:48;;;;;;;3.15;1.15;;;10.40;99.90;;;;;;10514124;28;20032;-65
2023/01/08 08:27:48;;;;;;;2.63;0.93;;;10.40;99.90;;;;;;10519978;28;20020;-65
2023/01/08 08:32:49;;;;;;;1.65;0.88;;;10.40;99.90;;;;;;10522286;28;20020;-64
2023/01/08 08:37:50;;;;;;;3.17;0.90;;;10.40;99.90;;;;;;10520475;28;20057;-68
2023/01/08 08:43:02;;;;;;;1.65;1.00;;;10.30;99.90;;;;;;10520860;28;20469;-71
2023/01/08 08:48:07;;;;;;;1.55;0.68;;;10.40;99.90;;;;;;10513131;28;20024;-67
2023/01/08 08:53:08;;;;;;;1.35;0.85;;;10.30;99.90;;;;;;10508973;28;20062;-72
2023/01/08 08:58:13;;;;;;;1.58;0.70;;;10.40;99.90;;;;;;10517189;28;20039;-67
2023/01/08 09:03:14;;;;;;;0.90;0.65;;;10.40;99.90;;;;;;10518725;28;20052;-64
2023/01/08 09:08:15;;;;;;;1.88;0.80;;;10.40;99.90;;;;;;10519551;28;20039;-64
2023/01/08 09:13:15;;;;;;;2.15;0.90;;;10.40;99.90;;;;;;10525116;28;20441;-70
2023/01/08 09:18:16;;;;;;;3.33;1.00;;;10.40;99.90;;;;;;10520693;28;20357;-64
2023/01/08 09:23:16;;;;;;;3.33;0.98;;;10.40;99.90;;;;;;10522816;28;20489;-64
2023/01/08 09:28:17;;;;;;;2.47;0.90;;;10.40;99.90;;;;;;10509654;28;20020;-64
2023/01/08 09:33:18;;;;;;;2.03;0.93;;;10.40;99.90;;;;;;10518193;28;20044;-71
2023/01/08 09:38:18;;;;;;;4.32;1.02;;;10.50;99.90;;;;;;10532041;28;20032;-66
2023/01/08 09:43:21;;;;;;;3.45;1.00;;;10.50;99.90;;;;;;10520949;28;20020;-64
2023/01/08 09:48:31;;;;;;;1.40;0.80;;;10.50;99.90;;;;;;10531903;28;20085;-67
2023/01/08 09:53:32;;;;;;;3.10;0.90;;;10.50;99.90;;;;;;10517733;28;20076;-64
2023/01/08 09:58:40;;;;;;;4.18;0.90;;;10.50;99.90;;;;;;10524668;28;20483;-67
2023/01/08 10:03:45;;;;;;;3.22;0.80;;;10.50;99.90;;;;;;10518877;28;20016;-64
2023/01/08 10:08:45;;;;;;;2.83;0.90;;;10.50;99.90;;;;;;10523645;28;20031;-69
2023/01/08 10:13:53;;;;;;;1.90;0.80;;;10.60;99.90;;;;;;10525534;28;20361;-67
2023/01/08 10:18:54;;;;;;;2.63;1.00;;;10.60;99.90;;;;;;10516026;28;20404;-64
2023/01/08 10:23:55;;;;;;;3.83;0.80;;;10.60;99.90;;;;;;10519026;28;20035;-72
2023/01/08 10:29:17;;;;;;;2.80;0.80;;;10.60;99.90;;;;;;10520865;28;20025;-65
2023/01/08 10:34:38;;;;;;;6.35;1.05;;;10.90;99.90;;;;;;10527876;28;20032;-65
2023/01/08 10:39:44;;;;;;;2.42;0.70;;;10.70;99.90;;;;;;10524627;28;20032;-64
2023/01/08 10:45:01;;;;;;;4.88;1.10;;;10.80;99.90;;;;;;10518431;28;20017;-64
2023/01/08 10:50:04;;;;;;;3.65;0.85;;;10.80;99.90;;;;;;10521005;28;20494;-65
2023/01/08 10:55:19;;;;;;;3.00;0.90;;;10.80;99.90;;;;;;10520938;28;20409;-71
2023/01/08 11:00:22;;;;;;;1.98;1.10;;;10.90;99.90;;;;;;10530841;28;20119;-64
2023/01/08 11:05:33;;;;;;;6.60;1.23;;;10.90;99.90;;;;;;10526179;28;20344;-65
2023/01/08 11:10:36;;;;;;;3.63;1.02;;;10.90;99.90;;;;;;10515573;28;20020;-64
2023/01/08 11:15:39;;;;;;;3.90;0.90;;;11.00;99.90;;;;;;10520827;28;20012;-64
2023/01/08 11:20:40;;;;;;;3.17;0.90;;;11.00;99.90;;;;;;10525146;28;20037;-71
2023/01/08 11:25:51;;;;;;;9.60;1.25;;;11.00;99.90;;;;;;10510601;28;20055;-64
2023/01/08 11:31:33;;;;;;;2.47;0.85;;;11.00;99.90;;;;;;10516432;28;20020;-67
2023/01/08 11:36:48;;;;;;;1.73;0.60;;;11.00;99.90;;;;;;11238940;22;20051;-64
2023/01/08 11:42:17;;;;;;;3.55;0.88;;;11.00;99.90;;;;;;10432347;28;20116;-63
2023/01/08 11:47:21;;;;;;;5.50;1.35;;;11.00;99.90;;;;;;10435202;28;20445;-65
2023/01/08 11:52:49;;;;;;;3.08;1.15;;;10.90;99.90;;;;;;10430577;28;20082;-64
2023/01/08 11:58:11;;;;;;;4.15;1.50;;;10.70;99.90;;;;;;10444404;28;20329;-65
2023/01/08 12:03:25;;;;;;;4.93;1.42;;;10.70;99.90;;;;;;10445709;28;20079;-65
2023/01/08 12:08:26;;;;;;;8.27;1.25;;;10.80;99.90;;;;;;10438933;28;20025;-64
2023/01/08 12:13:58;;;;;;;4.93;1.45;;;10.80;99.90;;;;;;10443848;28;20435;-65
2023/01/08 12:19:41;;;;;;;4.40;1.10;;;10.90;99.90;;;;;;10452820;28;20044;-65
2023/01/08 12:25:10;;;;;;;2.33;1.00;;;10.90;99.90;;;;;;10452925;28;20020;-72
2023/01/08 12:30:28;;;;;;;3.92;1.33;;;10.90;99.90;;;;;;10452385;28;20025;-64
2023/01/08 12:35:38;;;;;;;3.70;1.45;;;10.90;99.90;;;;;;10442681;28;20048;-72
2023/01/08 12:40:47;;;;;;;6.03;1.17;;;10.90;99.90;;;;;;10453045;28;20460;-68
2023/01/08 12:45:52;;;;;;;5.57;1.20;;;10.90;99.90;;;;;;10449963;28;20024;-65
2023/01/08 12:51:19;;;;;;;7.45;1.25;;;10.90;99.90;;;;;;10449529;28;20420;-66
2023/01/08 12:56:30;;;;;;;4.43;0.95;;;10.90;99.90;;;;;;10446139;28;20031;-65
2023/01/08 13:01:49;;;;;;;5.25;1.17;;;10.90;99.90;;;;;;10444318;28;20028;-64
2023/01/08 13:06:57;;;;;;;7.00;1.15;;;10.90;99.90;;;;;;10456868;28;20021;-65
2023/01/08 13:12:00;;;;;;;5.65;1.10;;;10.90;99.90;;;;;;10434998;28;20082;-69
2023/01/08 13:17:04;;;;;;;4.40;0.98;;;10.90;99.90;;;;;;10445333;28;20445;-64
2023/01/08 13:22:26;;;;;;;3.58;1.23;;;11.00;99.90;;;;;;10448545;28;20072;-65
2023/01/08 13:27:28;;;;;;;2.38;0.90;;;10.90;99.90;;;;;;10443008;28;20056;-65
2023/01/08 13:32:47;;;;;;;1.58;0.93;;;10.90;99.90;;;;;;10455580;28;20025;-65
2023/01/08 13:38:03;;;;;;;;;;;10.90;99.90;;;;;;10911493;22;20051;-66
2023/01/08 13:43:11;;;;;;;5.63;1.00;;;10.90;99.90;;;;;;10510230;28;19912;-70
2023/01/08 13:48:30;;;;;;;1.77;0.80;;;10.90;99.90;;;;;;10524963;28;20031;-66
2023/01/08 13:53:32;;;;;;;3.53;0.70;;;10.80;99.90;;;;;;10512553;28;20020;-69
2023/01/08 13:58:39;;;;;;;2.13;0.60;;;10.80;99.90;;;;;;10515981;28;20043;-66
2023/01/08 14:03:45;;;;;;;3.40;0.52;;;10.80;99.90;;;;;;10521528;28;20063;-68
2023/01/08 14:08:54;;;;;;;1.60;0.43;;;10.80;99.90;;;;;;10519316;28;20032;-66
2023/01/08 14:13:56;;;;;;;3.75;0.90;;;10.80;99.90;;;;;;10515143;28;20024;-71
2023/01/08 14:19:00;;;;;;;1.25;0.60;;;10.80;99.90;;;;;;10517155;28;20408;-69
2023/01/08 14:24:01;;;;;;;3.83;0.70;;;10.80;99.90;;;;;;10526947;28;20111;-67
2023/01/08 14:29:13;;;;;;;0.90;0.45;;;10.80;99.90;;;;;;10518785;28;20021;-66
2023/01/08 14:34:15;;;;;;;2.05;0.60;;;10.80;99.90;;;;;;10518739;28;20484;-65
2023/01/08 14:39:33;;;;;;;1.60;0.50;;;10.70;99.90;;;;;;10508031;28;20109;-66
2023/01/08 14:44:34;;;;;;;1.90;0.80;;;10.80;99.90;;;;;;10522330;28;20097;-67
2023/01/08 14:49:42;;;;;;;3.00;0.40;;;10.80;99.90;;;;;;10519540;28;20547;-65
2023/01/08 14:54:45;;;;;;;3.08;0.65;;;10.70;99.90;;;;;;10525358;28;20045;-66
2023/01/08 14:59:53;;;;;;;1.63;0.50;;;10.70;99.90;;;;;;10503181;28;20024;-68
2023/01/08 15:05:13;;;;;;;2.13;0.65;;;10.70;99.90;;;;;;10524409;28;21407;-69
2023/01/08 15:10:33;;;;;;;1.85;0.65;;;10.70;99.90;;;;;;10521378;28;20043;-59
2023/01/08 15:15:50;;;;;;;4.53;0.88;;;10.60;99.90;;;;;;10514170;28;20016;-66
2023/01/08 15:20:52;;;;;;;2.05;0.50;;;10.40;99.90;;;;;;10514424;28;20044;-66
2023/01/08 15:25:54;;;;;;;2.40;0.90;;;10.40;99.90;;;;;;10511741;28;20013;-66
2023/01/08 15:30:55;;;;;;;1.90;0.70;;;10.70;99.90;;;;;;10523043;28;20035;-68
2023/01/08 15:35:56;;;;;;;3.95;0.88;;;10.50;99.90;;;;;;10515750;28;20580;-70
2023/01/08 15:40:56;;;;;;;0.93;0.75;;;10.50;99.90;;;;;;10518801;28;20089;-69
2023/01/08 15:45:57;;;;;;;1.27;0.75;;;10.50;99.90;;;;;;10513765;28;20465;-67
2023/01/08 15:50:59;;;;;;;0.95;0.50;;;10.50;99.90;;;;;;10518051;28;20021;-64
2023/01/08 15:55:59;;;;;;;1.15;0.50;;;10.60;99.90;;;;;;10521931;28;20028;-69
2023/01/08 16:01:00;;;;;;;1.95;0.90;;;10.50;99.90;;;;;;10520562;28;20028;-65
2023/01/08 16:06:07;;;;;;;4.20;1.40;;;10.60;99.90;;;;;;10522989;28;20027;-68
2023/01/08 16:11:09;;;;;;;2.20;0.88;;;10.50;99.90;;;;;;10515345;28;20028;-64
2023/01/08 16:16:13;;;;;;;3.17;1.05;;;10.70;99.90;;;;;;10512603;28;20031;-66
2023/01/08 16:21:14;;;;;;;2.13;1.00;;;10.80;99.90;;;;;;10491832;28;20126;-67
2023/01/08 16:26:14;;;;;;;2.92;0.88;;;10.70;99.90;;;;;;10500004;28;20028;-67
2023/01/08 16:31:15;;;;;;;1.45;0.90;;;11.00;99.90;;;;;;10513078;28;20087;-69
2023/01/08 16:36:16;;;;;;;2.15;0.90;;;10.70;99.90;;;;;;10515897;28;20104;-68
2023/01/08 16:41:16;;;;;;;4.85;1.00;;;10.60;99.90;;;;;;10491535;28;20690;-68
2023/01/08 16:46:17;;;;;;;2.05;1.05;;;10.60;99.90;;;;;;10507614;28;20027;-69
2023/01/08 16:51:20;;;;;;;0.98;0.70;;;10.50;99.90;;;;;;10514107;28;20032;-68
2023/01/08 16:56:20;;;;;;;1.20;0.70;;;10.50;99.90;;;;;;10512596;28;20485;-68
2023/01/08 17:01:21;;;;;;;3.88;1.05;;;10.40;99.90;;;;;;10515869;28;20024;-68
2023/01/08 17:06:21;;;;;;;2.47;0.70;;;10.40;99.90;;;;;;10515482;28;20069;-67
2023/01/08 17:11:22;;;;;;;2.80;0.85;;;10.40;99.90;;;;;;10511915;28;20026;-68
2023/01/08 17:16:23;;;;;;;2.42;1.02;;;10.30;99.90;;;;;;10519319;28;20384;-68
2023/01/08 17:21:24;;;;;;;1.40;0.98;;;10.30;99.90;;;;;;10514745;28;20024;-67
2023/01/08 17:26:24;;;;;;;1.90;0.90;;;10.60;99.90;;;;;;10518111;28;20016;-67
2023/01/08 17:31:25;;;;;;;1.05;0.73;;;10.30;99.90;;;;;;10511546;28;20106;-67
2023/01/08 17:36:26;;;;;;;2.20;0.90;;;10.30;99.90;;;;;;10517851;28;20028;-66
2023/01/08 17:46:46;;;;;;;1.98;0.95;;;10.30;99.90;;;;;;10513721;28;20073;-66
2023/01/08 17:51:47;;;;;;;1.58;0.85;;;10.30;99.90;;;;;;10512749;28;20048;-66
2023/01/08 17:56:48;;;;;;;1.92;0.98;;;11.20;99.90;;;;;;10496471;28;20247;-66
2023/01/08 18:01:51;;;;;;;1.67;0.82;;;11.20;99.90;;;;;;10499844;28;20048;-66
2023/01/08 18:06:52;;;;;;;5.30;1.33;;;10.50;99.90;;;;;;10528176;28;20012;-65
2023/01/08 18:11:53;;;;;;;3.05;1.13;;;10.20;99.90;;;;;;10525318;28;20031;-66
2023/01/08 18:16:55;;;;;;;3.00;1.08;;;10.20;99.90;;;;;;10523063;28;20484;-66
2023/01/08 18:21:56;;;;;;;3.15;1.05;;;10.20;99.90;;;;;;10518837;28;20070;-66
2023/01/08 18:26:57;;;;;;;5.82;1.70;;;10.20;99.90;;;;;;10526277;28;20112;-66
2023/01/08 18:31:59;;;;;;;2.53;1.40;;;10.20;99.90;;;;;;10523487;28;20023;-66
2023/01/08 18:36:59;;;;;;;2.42;1.50;;;10.20;99.90;;;;;;10522150;28;20075;-68
2023/01/08 18:47:21;;;;;;;2.92;1.70;;;10.10;99.90;;;;;;10505784;28;20035;-67
2023/01/08 18:52:22;;;;;;;3.47;1.65;;;10.30;99.90;;;;;;10508675;28;20016;-67
2023/01/08 18:57:22;;;;;;;4.28;1.70;;;10.10;99.90;;;;;;10526108;28;20038;-66
2023/01/08 19:02:30;;;;;;;3.03;1.48;;;10.20;99.90;;;;;;10514538;28;20040;-67
2023/01/08 19:07:31;;;;;;;3.05;1.20;;;10.80;99.90;;;;;;10500600;28;20665;-66
2023/01/08 19:12:32;;;;;;;3.05;1.52;;;10.20;99.90;;;;;;10493856;28;20174;-66
2023/01/08 19:17:32;;;;;;;3.53;1.55;;;10.10;99.90;;;;;;10511735;28;20024;-66
2023/01/08 19:22:33;;;;;;;2.70;1.38;;;10.10;99.90;;;;;;10510961;28;20340;-66
2023/01/08 19:27:34;;;;;;;5.65;1.45;;;10.10;99.90;;;;;;10519281;28;20031;-66
2023/01/08 19:32:35;;;;;;;2.13;1.27;;;10.10;99.90;;;;;;10522912;28;20661;-67
2023/01/08 19:37:36;;;;;;;3.55;1.40;;;10.00;99.90;;;;;;10519465;28;20028;-66
2023/01/08 19:47:55;;;;;;;2.90;1.10;;;10.00;99.90;;;;;;10513608;28;20388;-68
2023/01/08 19:52:56;;;;;;;3.42;1.48;;;10.00;99.90;;;;;;10516558;28;20031;-68
2023/01/08 19:57:58;;;;;;;2.78;1.33;;;10.00;99.90;;;;;;10512358;28;20020;-67
2023/01/08 20:02:59;;;;;;;2.53;1.50;;;10.00;99.90;;;;;;10509476;28;20040;-67
2023/01/08 20:07:59;;;;;;;3.53;1.40;;;10.00;99.90;;;;;;10515639;28;20026;-67
2023/01/08 20:13:00;;;;;;;2.67;1.15;;;10.00;99.90;;;;;;10518556;28;20039;-67
2023/01/08 20:18:00;;;;;;;2.05;1.13;;;9.90;99.90;;;;;;10496525;28;20066;-67
2023/01/08 20:23:01;;;;;;;1.83;1.33;;;9.90;99.90;;;;;;10512566;28;20086;-67
2023/01/08 20:28:02;;;;;;;3.60;1.30;;;9.90;99.90;;;;;;10508512;28;20035;-68
2023/01/08 20:33:02;;;;;;;3.67;1.20;;;9.90;99.90;;;;;;10495353;28;20369;-67
2023/01/08 20:38:03;;;;;;;5.70;1.40;;;9.90;99.90;;;;;;10497564;28;20028;-68
2023/01/08 20:43:03;;;;;;;1.40;1.08;;;9.90;99.90;;;;;;10512484;28;20029;-68
2023/01/08 20:48:04;;;;;;;1.63;1.10;;;9.90;99.90;;;;;;10505936;28;20016;-69
2023/01/08 20:53:05;;;;;;;2.60;1.08;;;9.90;99.90;;;;;;10507251;28;20089;-67
2023/01/08 20:58:05;;;;;;;2.10;1.20;;;9.80;99.90;;;;;;10513607;28;20020;-68
2023/01/08 21:03:07;;;;;;;1.98;1.00;;;9.80;99.90;;;;;;10508337;28;20535;-69
2023/01/08 21:08:07;;;;;;;3.47;0.95;;;9.80;99.90;;;;;;10516648;28;20111;-68
2023/01/08 21:13:08;;;;;;;2.15;1.00;;;9.80;99.90;;;;;;10497688;28;20366;-69
2023/01/08 21:18:09;;;;;;;2.20;1.13;;;9.80;99.90;;;;;;10693866;22;20500;-69
2023/01/08 21:23:09;;;;;;;2.83;1.13;;;9.80;99.90;;;;;;10807470;22;20098;-69
2023/01/08 21:28:10;;;;;;;3.03;0.90;;;9.80;99.90;;;;;;10479611;28;20020;-70
2023/01/08 21:33:10;;;;;;;1.77;1.00;;;9.80;99.90;;;;;;10488105;28;20032;-70
2023/01/08 21:38:11;;;;;;;1.65;1.00;;;9.80;99.90;;;;;;10486148;28;20024;-69
2023/01/08 21:48:31;;;;;;;2.22;0.98;;;9.70;99.90;;;;;;10484101;28;20008;-70
2023/01/08 21:53:32;;;;;;;2.30;0.85;;;9.80;99.90;;;;;;10476903;28;20375;-67
2023/01/08 21:58:33;;;;;;;2.00;0.90;;;9.70;99.90;;;;;;10480698;28;20369;-67
2023/01/08 22:03:33;;;;;;;3.33;0.90;;;10.10;99.90;;;;;;10481551;28;20029;-68
2023/01/08 22:08:34;;;;;;;1.80;0.90;;;9.70;99.90;;;;;;10479295;28;20044;-67
2023/01/08 22:13:37;;;;;;;3.20;1.02;;;9.70;99.90;;;;;;10477322;28;20086;-68
2023/01/08 22:18:37;;;;;;;1.52;0.90;;;9.70;99.90;;;;;;10466719;28;20103;-69
2023/01/08 22:23:38;;;;;;;1.88;0.90;;;9.70;99.90;;;;;;10467753;28;20025;-66
2023/01/08 22:28:39;;;;;;;1.23;0.90;;;9.80;99.90;;;;;;10477176;28;20031;-65
2023/01/08 22:33:40;;;;;;;2.08;0.95;;;9.70;99.90;;;;;;10473747;28;20044;-68
2023/01/08 22:38:40;;;;;;;2.67;1.00;;;9.70;99.90;;;;;;10482879;28;20119;-65
2023/01/08 22:43:41;;;;;;;1.98;1.00;;;9.70;99.90;;;;;;10476313;28;20116;-66
2023/01/08 22:48:42;;;;;;;2.15;1.00;;;9.70;99.90;;;;;;10473056;28;20336;-66
2023/01/08 22:53:43;;;;;;;2.67;0.90;;;9.70;99.90;;;;;;10474607;28;20085;-66
2023/01/08 22:59:24;;;;;;;1.42;0.95;;;9.70;99.90;;;;;;10469215;28;20028;-68
2023/01/08 23:04:54;;;;;;;3.53;1.33;;;9.70;99.90;;;;;;10437561;28;20028;-66
2023/01/08 23:09:55;;;;;;;2.25;1.13;;;9.70;99.90;;;;;;10482184;28;20029;-69
2023/01/08 23:14:55;;;;;;;2.42;1.17;;;9.60;99.90;;;;;;10484024;28;20485;-66
2023/01/08 23:19:56;;;;;;;4.25;1.05;;;9.60;99.90;;;;;;10486891;28;20040;-67
2023/01/08 23:24:57;;;;;;;1.10;0.90;;;9.70;99.90;;;;;;10479280;28;20275;-69
2023/01/08 23:29:58;;;;;;;3.58;1.30;;;9.70;99.90;;;;;;10472939;28;20500;-68
2023/01/08 23:34:58;;;;;;;2.13;1.20;;;9.70;99.90;;;;;;10482400;28;20023;-68
2023/01/08 23:39:59;;;;;;;4.55;1.20;;;9.70;99.90;;;;;;10467933;28;20039;-68
2023/01/08 23:45:00;;;;;;;1.73;1.00;;;9.70;99.90;;;;;;10477281;28;20078;-69
2023/01/08 23:50:00;;;;;;;4.10;1.30;;;9.70;99.90;;;;;;10481962;28;20040;-69
2023/01/08 23:55:01;;;;;;;1.90;1.10;;;9.70;99.90;;;;;;10482368;28;20020;-67
